createdAt,value
2023-04-29T00:00:57.750Z,11.50
2023-04-29T00:03:29.142Z,11.50
2023-04-29T00:05:57.655Z,11.50
2023-04-29T00:08:25.860Z,11.50
2023-04-29T00:10:53.867Z,11.60
2023-04-29T00:13:22.067Z,11.50
2023-04-29T00:15:51.579Z,11.50
2023-04-29T00:18:19.603Z,11.50
2023-04-29T00:20:47.606Z,11.50
2023-04-29T00:23:15.625Z,11.50
2023-04-29T00:25:43.846Z,11.50
2023-04-29T00:28:12.443Z,11.50
2023-04-29T00:30:40.617Z,11.50
2023-04-29T00:33:10.101Z,11.50
2023-04-29T00:35:38.181Z,11.50
2023-04-29T00:38:06.280Z,11.50
2023-04-29T00:40:34.296Z,11.50
2023-04-29T00:43:02.397Z,11.50
2023-04-29T00:45:30.459Z,11.50
2023-04-29T00:47:58.555Z,11.50
2023-04-29T00:50:27.968Z,11.50
2023-04-29T00:52:56.513Z,11.50
2023-04-29T00:55:24.662Z,11.50
2023-04-29T00:57:52.841Z,11.50
2023-04-29T01:00:21.320Z,11.40
2023-04-29T01:02:50.208Z,11.40
2023-04-29T01:05:18.491Z,11.40
2023-04-29T01:07:53.857Z,11.50
2023-04-29T01:10:28.190Z,11.50
2023-04-29T01:13:03.616Z,11.50
2023-04-29T01:15:33.998Z,11.50
2023-04-29T01:18:05.159Z,11.50
2023-04-29T01:20:33.471Z,11.50
2023-04-29T01:23:02.876Z,11.50
2023-04-29T01:25:32.431Z,11.50
2023-04-29T01:28:14.597Z,11.50
2023-04-29T01:30:47.151Z,11.40
2023-04-29T01:33:18.942Z,11.40
2023-04-29T01:36:00.146Z,11.40
2023-04-29T01:38:34.133Z,11.40
2023-04-29T01:41:10.422Z,11.40
2023-04-29T01:43:39.127Z,11.40
2023-04-29T01:46:21.628Z,11.40
2023-04-29T01:48:54.497Z,11.40
2023-04-29T01:51:22.963Z,11.30
2023-04-29T01:53:51.111Z,11.30
2023-04-29T01:56:21.291Z,11.30
2023-04-29T01:59:09.670Z,11.30
2023-04-29T02:02:06.859Z,11.10
2023-04-29T02:04:38.785Z,11.10
2023-04-29T02:07:07.261Z,11.10
2023-04-29T02:09:35.647Z,11.10
2023-04-29T02:12:11.241Z,11.10
2023-04-29T02:14:39.619Z,11.10
2023-04-29T02:17:07.947Z,11.10
2023-04-29T02:19:36.081Z,11.00
2023-04-29T02:22:04.497Z,11.00
2023-04-29T02:24:32.704Z,11.00
2023-04-29T02:27:00.776Z,11.00
2023-04-29T02:29:31.200Z,11.00
2023-04-29T02:32:00.022Z,11.00
2023-04-29T02:34:28.126Z,10.90
2023-04-29T02:36:56.190Z,11.00
2023-04-29T02:39:24.871Z,11.10
2023-04-29T02:41:57.196Z,11.10
2023-04-29T02:44:25.434Z,11.10
2023-04-29T02:46:54.858Z,11.10
2023-04-29T02:49:22.910Z,11.10
2023-04-29T02:51:51.060Z,11.00
2023-04-29T02:54:19.146Z,11.00
2023-04-29T02:56:47.301Z,11.10
2023-04-29T02:59:15.367Z,11.10
2023-04-29T03:01:43.517Z,11.00
2023-04-29T03:04:15.211Z,11.10
2023-04-29T03:06:43.768Z,11.00
2023-04-29T03:09:13.366Z,10.90
2023-04-29T03:11:41.502Z,10.90
2023-04-29T03:14:09.741Z,10.90
2023-04-29T03:16:38.551Z,10.90
2023-04-29T03:19:06.944Z,10.90
2023-04-29T03:21:36.359Z,11.00
2023-04-29T03:24:04.591Z,11.00
2023-04-29T03:26:35.322Z,11.00
2023-04-29T03:29:04.984Z,11.00
2023-04-29T03:31:35.473Z,11.00
2023-04-29T03:34:04.236Z,10.90
2023-04-29T03:36:36.449Z,11.00
2023-04-29T03:39:08.065Z,11.00
2023-04-29T03:41:36.313Z,11.00
2023-04-29T03:44:04.484Z,11.10
2023-04-29T03:46:32.656Z,11.00
2023-04-29T03:49:02.667Z,11.00
2023-04-29T03:51:30.830Z,11.00
2023-04-29T03:54:11.921Z,11.00
2023-04-29T03:56:40.196Z,11.00
2023-04-29T03:59:08.365Z,11.00
2023-04-29T04:01:37.816Z,11.00
2023-04-29T04:04:06.530Z,11.00
2023-04-29T04:06:36.805Z,11.00
2023-04-29T04:09:04.993Z,11.00
2023-04-29T04:11:36.590Z,10.90
2023-04-29T04:14:05.859Z,10.90
2023-04-29T04:16:34.046Z,10.90
2023-04-29T04:19:02.988Z,10.80
2023-04-29T04:21:32.837Z,10.80
2023-04-29T04:24:06.678Z,10.80
2023-04-29T04:26:36.111Z,10.70
2023-04-29T04:29:16.331Z,10.80
2023-04-29T04:31:54.993Z,10.80
2023-04-29T04:34:23.925Z,10.80
2023-04-29T04:36:53.693Z,10.80
2023-04-29T04:39:23.481Z,10.70
2023-04-29T04:41:54.022Z,10.60
2023-04-29T04:44:22.412Z,10.60
2023-04-29T04:47:02.310Z,10.60
2023-04-29T04:49:54.147Z,10.60
2023-04-29T04:52:23.236Z,10.50
2023-04-29T04:55:15.023Z,10.50
2023-04-29T04:57:47.284Z,10.60
2023-04-29T05:00:15.937Z,10.50
2023-04-29T05:02:44.397Z,10.60
2023-04-29T05:05:12.585Z,10.60
2023-04-29T05:07:42.898Z,10.50
2023-04-29T05:10:11.878Z,10.60
2023-04-29T05:12:48.645Z,10.60
2023-04-29T05:15:17.079Z,10.60
2023-04-29T05:17:46.193Z,10.60
2023-04-29T05:20:14.362Z,10.50
2023-04-29T05:22:42.429Z,10.50
2023-04-29T05:25:11.295Z,10.40
2023-04-29T05:27:40.441Z,10.30
2023-04-29T05:30:14.251Z,10.30
2023-04-29T05:32:42.388Z,10.40
2023-04-29T05:35:14.523Z,10.30
2023-04-29T05:37:42.759Z,10.40
2023-04-29T05:40:29.491Z,10.40
2023-04-29T05:43:12.896Z,10.30
2023-04-29T05:45:42.309Z,10.30
2023-04-29T05:48:10.445Z,10.20
2023-04-29T05:50:38.540Z,10.20
2023-04-29T05:53:06.809Z,10.10
2023-04-29T05:55:35.965Z,10.20
2023-04-29T05:58:04.035Z,10.30
2023-04-29T06:00:32.788Z,10.30
2023-04-29T06:03:12.265Z,10.40
2023-04-29T06:05:40.929Z,10.40
2023-04-29T06:08:28.352Z,10.40
2023-04-29T06:11:05.393Z,10.30
2023-04-29T06:13:33.670Z,10.30
2023-04-29T06:16:01.839Z,10.30
2023-04-29T06:18:35.133Z,10.20
2023-04-29T06:21:03.228Z,10.20
2023-04-29T06:23:32.204Z,10.20
2023-04-29T06:26:02.607Z,10.30
2023-04-29T06:28:30.951Z,10.30
2023-04-29T06:30:59.013Z,10.30
2023-04-29T06:33:28.342Z,10.40
2023-04-29T06:35:57.832Z,10.40
2023-04-29T06:38:46.123Z,10.30
2023-04-29T06:41:29.048Z,10.40
2023-04-29T06:44:16.952Z,10.30
2023-04-29T06:47:08.165Z,10.30
2023-04-29T06:49:49.991Z,10.30
2023-04-29T06:52:19.447Z,10.30
2023-04-29T06:54:47.501Z,10.30
2023-04-29T06:57:15.553Z,10.30
2023-04-29T06:59:47.405Z,10.30
2023-04-29T07:02:16.086Z,10.30
2023-04-29T07:04:44.199Z,10.30
2023-04-29T07:07:12.480Z,10.20
2023-04-29T07:09:41.889Z,10.20
2023-04-29T07:12:09.937Z,10.20
2023-04-29T07:14:38.482Z,10.10
2023-04-29T07:17:06.597Z,10.10
2023-04-29T07:19:34.795Z,10.00
2023-04-29T07:22:02.875Z,10.00
2023-04-29T07:24:31.105Z,10.00
2023-04-29T07:27:00.595Z,10.00
2023-04-29T07:29:28.686Z,10.00
2023-04-29T07:31:57.263Z,10.10
2023-04-29T07:34:25.573Z,10.10
2023-04-29T07:36:53.601Z,10.20
2023-04-29T07:39:21.755Z,10.30
2023-04-29T07:41:54.967Z,10.30
2023-04-29T07:44:24.469Z,10.30
2023-04-29T07:46:52.522Z,10.30
2023-04-29T07:49:20.594Z,10.20
2023-04-29T07:51:48.633Z,10.20
2023-04-29T07:54:18.605Z,10.20
2023-04-29T07:56:46.699Z,10.10
2023-04-29T07:59:14.767Z,10.20
2023-04-29T08:01:44.616Z,10.20
2023-04-29T08:04:13.007Z,10.20
2023-04-29T08:06:50.151Z,10.30
2023-04-29T08:09:18.211Z,10.20
2023-04-29T08:11:46.706Z,10.20
2023-04-29T08:14:14.867Z,10.20
2023-04-29T08:19:12.327Z,10.30
2023-04-29T08:21:40.372Z,10.40
2023-04-29T08:24:08.441Z,10.50
2023-04-29T08:26:36.459Z,10.60
2023-04-29T08:29:04.513Z,10.60
2023-04-29T08:31:32.623Z,10.70
2023-04-29T08:34:02.062Z,10.80
2023-04-29T08:36:30.158Z,10.90
2023-04-29T08:38:58.253Z,10.90
2023-04-29T08:41:26.862Z,10.90
2023-04-29T08:43:54.927Z,10.90
2023-04-29T08:46:23.312Z,10.90
2023-04-29T08:48:51.821Z,11.00
2023-04-29T08:51:21.278Z,11.00
2023-04-29T08:53:49.315Z,11.10
2023-04-29T08:56:20.597Z,11.20
2023-04-29T08:58:49.695Z,11.30
2023-04-29T09:01:17.828Z,11.40
2023-04-29T09:03:48.409Z,11.50
2023-04-29T09:06:16.635Z,11.50
2023-04-29T09:08:46.032Z,11.50
2023-04-29T09:11:14.096Z,11.40
2023-04-29T09:13:42.125Z,11.40
2023-04-29T09:16:12.477Z,11.40
2023-04-29T09:18:44.134Z,11.50
2023-04-29T09:21:15.071Z,11.60
2023-04-29T09:23:43.181Z,11.80
2023-04-29T09:26:12.630Z,11.80
2023-04-29T09:28:43.683Z,11.80
2023-04-29T09:31:11.930Z,12.00
2023-04-29T09:33:52.700Z,12.40
2023-04-29T09:36:39.201Z,12.70
2023-04-29T09:39:11.541Z,12.70
2023-04-29T09:41:59.145Z,12.70
2023-04-29T09:44:28.836Z,12.80
2023-04-29T09:46:58.396Z,12.90
2023-04-29T09:49:26.966Z,13.00
2023-04-29T09:51:56.051Z,13.00
2023-04-29T09:54:24.326Z,12.90
2023-04-29T09:56:54.273Z,13.10
2023-04-29T09:59:22.832Z,13.40
2023-04-29T10:01:51.517Z,13.60
2023-04-29T10:04:20.892Z,13.70
2023-04-29T10:06:50.395Z,13.40
2023-04-29T10:09:18.855Z,13.80
2023-04-29T10:11:47.198Z,14.00
2023-04-29T10:14:17.784Z,14.20
2023-04-29T10:16:49.283Z,14.10
2023-04-29T10:19:20.826Z,14.00
2023-04-29T10:21:50.006Z,13.80
2023-04-29T10:24:19.836Z,13.70
2023-04-29T10:26:48.494Z,13.60
2023-04-29T10:29:18.072Z,13.50
2023-04-29T10:31:46.158Z,13.70
2023-04-29T10:34:14.394Z,13.70
2023-04-29T10:36:42.458Z,13.60
2023-04-29T10:39:14.153Z,13.60
2023-04-29T10:41:45.952Z,13.90
2023-04-29T10:44:14.179Z,14.10
2023-04-29T10:46:43.604Z,14.20
2023-04-29T10:49:12.170Z,14.10
2023-04-29T10:51:41.989Z,13.80
2023-04-29T10:54:11.717Z,13.80
2023-04-29T10:56:43.901Z,13.70
2023-04-29T10:59:13.525Z,13.70
2023-04-29T11:01:44.625Z,13.50
2023-04-29T11:04:12.807Z,13.50
2023-04-29T11:06:42.615Z,13.30
2023-04-29T11:09:15.425Z,13.40
2023-04-29T11:11:49.041Z,13.50
2023-04-29T11:14:23.484Z,13.50
2023-04-29T11:16:55.241Z,13.30
2023-04-29T11:19:25.061Z,13.10
2023-04-29T11:22:11.937Z,13.10
2023-04-29T11:24:53.564Z,13.10
2023-04-29T11:27:25.304Z,13.00
2023-04-29T11:29:55.909Z,12.70
2023-04-29T11:32:25.890Z,12.70
2023-04-29T11:34:54.488Z,12.70
2023-04-29T11:37:23.723Z,12.70
2023-04-29T11:39:52.479Z,12.70
2023-04-29T11:42:23.413Z,12.60
2023-04-29T11:44:56.838Z,12.80
2023-04-29T11:47:29.711Z,12.90
2023-04-29T11:50:04.323Z,12.80
2023-04-29T11:52:32.393Z,13.00
2023-04-29T11:55:00.562Z,13.10
2023-04-29T11:57:28.588Z,13.10
2023-04-29T11:59:56.915Z,13.00
2023-04-29T12:02:25.132Z,13.10
2023-04-29T12:04:55.061Z,13.10
2023-04-29T12:07:23.339Z,13.00
2023-04-29T12:09:51.586Z,13.00
2023-04-29T12:12:20.590Z,13.20
2023-04-29T12:14:48.654Z,13.00
2023-04-29T12:17:17.587Z,13.00
2023-04-29T12:19:46.028Z,13.00
2023-04-29T12:22:15.723Z,13.10
2023-04-29T12:24:43.814Z,13.20
2023-04-29T12:27:11.964Z,13.30
2023-04-29T12:29:40.716Z,13.40
2023-04-29T12:32:09.741Z,13.50
2023-04-29T12:34:37.982Z,13.70
2023-04-29T12:37:06.005Z,13.80
2023-04-29T12:39:35.403Z,13.90
2023-04-29T12:42:03.435Z,14.00
2023-04-29T12:44:36.882Z,14.20
2023-04-29T12:47:09.747Z,14.30
2023-04-29T12:49:38.130Z,14.30
2023-04-29T12:52:09.543Z,14.60
2023-04-29T12:54:41.127Z,14.70
2023-04-29T12:57:10.191Z,14.70
2023-04-29T12:59:38.485Z,14.80
2023-04-29T13:02:06.805Z,14.90
2023-04-29T13:04:34.986Z,14.90
2023-04-29T13:07:04.412Z,14.90
2023-04-29T13:09:32.606Z,14.90
2023-04-29T13:12:02.931Z,14.80
2023-04-29T13:14:30.997Z,14.60
2023-04-29T13:16:59.092Z,14.30
2023-04-29T13:19:43.468Z,14.10
2023-04-29T13:22:15.609Z,14.00
2023-04-29T13:24:43.906Z,13.90
2023-04-29T13:27:13.402Z,13.90
2023-04-29T13:29:41.492Z,14.00
2023-04-29T13:32:09.560Z,14.00
2023-04-29T13:34:37.668Z,14.20
2023-04-29T13:37:05.724Z,14.30
2023-04-29T13:39:37.919Z,14.40
2023-04-29T13:42:06.555Z,14.60
2023-04-29T13:44:49.847Z,14.80
2023-04-29T13:47:25.599Z,15.00
2023-04-29T13:50:25.589Z,15.30
2023-04-29T14:05:26.661Z,15.10
2023-04-29T14:07:54.798Z,15.10
2023-04-29T14:10:23.047Z,15.00
2023-04-29T14:12:51.102Z,15.10
2023-04-29T14:15:20.847Z,15.00
2023-04-29T14:17:50.322Z,15.20
2023-04-29T14:20:18.467Z,15.60
2023-04-29T14:22:46.589Z,15.80
2023-04-29T14:25:14.727Z,16.10
2023-04-29T14:27:42.766Z,16.00
2023-04-29T14:30:11.684Z,15.90
2023-04-29T14:32:41.080Z,15.70
2023-04-29T14:35:10.257Z,15.60
2023-04-29T14:37:38.285Z,15.60
2023-04-29T14:40:07.712Z,15.70
2023-04-29T14:42:36.209Z,15.70
2023-04-29T14:45:04.652Z,15.70
2023-04-29T14:47:32.702Z,15.70
2023-04-29T14:50:02.144Z,15.50
2023-04-29T14:52:30.182Z,15.50
2023-04-29T14:54:58.240Z,15.50
2023-04-29T14:57:26.405Z,15.40
2023-04-29T14:59:54.472Z,15.30
2023-04-29T15:02:22.536Z,15.30
2023-04-29T15:04:50.891Z,15.40
2023-04-29T15:07:20.410Z,15.40
2023-04-29T15:09:48.460Z,15.40
2023-04-29T15:12:18.072Z,15.70
2023-04-29T15:14:46.124Z,15.80
2023-04-29T15:17:14.170Z,16.20
2023-04-29T15:19:42.224Z,16.20
2023-04-29T15:22:10.643Z,16.00
2023-04-29T15:24:40.090Z,15.70
2023-04-29T15:27:08.205Z,15.60
2023-04-29T15:29:37.670Z,15.70
2023-04-29T15:32:06.066Z,15.80
2023-04-29T15:34:34.159Z,15.80
2023-04-29T15:37:02.512Z,15.90
2023-04-29T15:39:30.650Z,15.90
2023-04-29T15:42:00.259Z,16.00
2023-04-29T15:44:28.446Z,16.20
2023-04-29T15:46:56.475Z,16.10
2023-04-29T15:49:25.665Z,15.70
2023-04-29T15:51:53.674Z,15.70
2023-04-29T15:54:21.866Z,15.60
2023-04-29T15:56:50.886Z,15.70
2023-04-29T15:59:20.398Z,15.70
2023-04-29T16:01:48.466Z,15.70
2023-04-29T16:04:16.656Z,15.70
2023-04-29T16:06:45.396Z,15.70
2023-04-29T16:09:13.491Z,15.50
2023-04-29T16:11:41.529Z,15.60
2023-04-29T16:14:09.585Z,15.60
2023-04-29T16:16:39.001Z,15.60
2023-04-29T16:19:07.076Z,15.80
2023-04-29T16:21:35.322Z,15.90
2023-04-29T16:24:03.422Z,15.80
2023-04-29T16:26:31.827Z,15.60
2023-04-29T16:28:59.940Z,15.40
2023-04-29T16:31:28.410Z,15.30
2023-04-29T16:33:58.212Z,15.10
2023-04-29T16:36:26.307Z,15.00
2023-04-29T16:38:55.061Z,14.90
2023-04-29T16:41:24.120Z,14.90
2023-04-29T16:43:52.222Z,14.80
2023-04-29T16:46:20.281Z,14.70
2023-04-29T16:48:51.317Z,14.50
2023-04-29T16:51:20.774Z,14.50
2023-04-29T16:53:48.822Z,14.50
2023-04-29T16:56:17.095Z,14.60
2023-04-29T16:58:45.159Z,14.60
2023-04-29T17:01:13.490Z,14.60
2023-04-29T17:03:41.538Z,14.50
2023-04-29T17:06:09.724Z,14.30
2023-04-29T17:08:39.183Z,14.20
2023-04-29T17:11:07.327Z,14.10
2023-04-29T17:13:35.391Z,14.00
2023-04-29T17:16:03.495Z,13.90
2023-04-29T17:18:31.563Z,13.80
2023-04-29T17:21:00.439Z,13.80
2023-04-29T17:23:28.735Z,13.70
2023-04-29T17:25:58.509Z,13.60
2023-04-29T17:28:26.586Z,13.60
2023-04-29T17:30:56.020Z,13.60
2023-04-29T17:33:33.550Z,13.50
2023-04-29T17:36:02.267Z,13.50
2023-04-29T17:38:30.344Z,13.40
2023-04-29T17:40:59.762Z,13.30
2023-04-29T17:43:27.794Z,13.30
2023-04-29T17:45:55.883Z,13.30
2023-04-29T17:48:23.958Z,13.20
2023-04-29T17:50:52.011Z,13.10
2023-04-29T17:53:20.061Z,13.10
2023-04-29T17:55:48.113Z,13.00
2023-04-29T17:58:17.497Z,13.00
2023-04-29T18:00:46.810Z,13.00
2023-04-29T18:03:14.945Z,12.90
2023-04-29T18:05:43.721Z,12.80
2023-04-29T18:08:11.833Z,12.70
2023-04-29T18:10:39.896Z,12.70
2023-04-29T18:13:07.935Z,12.60
2023-04-29T18:15:37.851Z,12.60
2023-04-29T18:18:05.921Z,12.50
2023-04-29T18:20:34.021Z,12.50
2023-04-29T18:23:02.066Z,12.40
2023-04-29T18:25:30.186Z,12.40
2023-04-29T18:28:07.747Z,12.40
2023-04-29T18:30:48.535Z,12.40
2023-04-29T18:33:16.647Z,12.40
2023-04-29T18:35:44.747Z,12.30
2023-04-29T18:38:16.278Z,12.20
2023-04-29T18:40:44.367Z,12.20
2023-04-29T18:43:15.340Z,12.20
2023-04-29T18:45:43.487Z,12.10
2023-04-29T18:48:13.097Z,12.10
2023-04-29T18:50:41.388Z,12.00
2023-04-29T18:53:09.577Z,12.00
2023-04-29T18:55:37.644Z,12.00
2023-04-29T18:58:05.693Z,12.00
2023-04-29T19:00:33.748Z,11.90
2023-04-29T19:03:01.798Z,11.90
2023-04-29T19:05:31.520Z,11.90
2023-04-29T19:07:59.766Z,11.70
2023-04-29T19:10:27.834Z,11.70
2023-04-29T19:12:56.091Z,11.60
2023-04-29T19:15:27.929Z,11.60
2023-04-29T19:17:56.253Z,11.50
2023-04-29T19:20:24.390Z,11.50
2023-04-29T19:22:53.859Z,11.50
2023-04-29T19:25:22.252Z,11.50
2023-04-29T19:27:51.125Z,11.50
2023-04-29T19:30:19.239Z,11.40
2023-04-29T19:32:47.439Z,11.40
2023-04-29T19:35:15.672Z,11.30
2023-04-29T19:37:44.344Z,11.20
2023-04-29T19:40:14.015Z,11.10
2023-04-29T19:42:42.047Z,11.20
2023-04-29T19:45:12.737Z,11.10
2023-04-29T19:47:41.118Z,11.00
2023-04-29T19:50:09.755Z,11.00
2023-04-29T19:52:37.789Z,10.90
2023-04-29T19:55:08.660Z,10.80
2023-04-29T19:57:38.804Z,10.80
2023-04-29T20:00:09.505Z,10.80
2023-04-29T20:02:37.714Z,10.70
2023-04-29T20:05:06.942Z,10.70
2023-04-29T20:07:34.972Z,10.70
2023-04-29T20:10:03.093Z,10.70
2023-04-29T20:12:31.406Z,10.80
2023-04-29T20:15:01.099Z,10.70
2023-04-29T20:17:29.449Z,10.60
2023-04-29T20:19:57.574Z,10.60
2023-04-29T20:22:25.731Z,10.50
2023-04-29T20:24:53.802Z,10.40
2023-04-29T20:27:21.835Z,10.40
2023-04-29T20:29:49.898Z,10.30
2023-04-29T20:32:19.386Z,10.20
2023-04-29T20:34:47.510Z,10.10
2023-04-29T20:37:15.945Z,10.10
2023-04-29T20:39:44.028Z,10.00
2023-04-29T20:42:12.073Z,10.00
2023-04-29T20:44:40.862Z,9.90
2023-04-29T20:47:08.900Z,9.90
2023-04-29T20:49:38.304Z,9.80
2023-04-29T20:52:07.427Z,9.70
2023-04-29T20:54:35.750Z,9.60
2023-04-29T20:57:05.636Z,9.60
2023-04-29T20:59:34.095Z,9.60
2023-04-29T21:02:02.182Z,9.50
2023-04-29T21:04:30.276Z,9.40
2023-04-29T21:06:59.706Z,9.30
2023-04-29T21:09:27.757Z,9.30
2023-04-29T21:11:57.941Z,9.20
2023-04-29T21:14:26.268Z,9.20
2023-04-29T21:16:54.407Z,9.10
2023-04-29T21:19:22.457Z,9.10
2023-04-29T21:21:50.577Z,9.10
2023-04-29T21:24:19.984Z,9.00
2023-04-29T21:26:48.310Z,8.90
2023-04-29T21:29:16.366Z,8.90
2023-04-29T21:31:44.463Z,8.90
2023-04-29T21:34:12.610Z,8.90
2023-04-29T21:36:40.634Z,8.90
2023-04-29T21:39:08.924Z,8.90
2023-04-29T21:41:39.025Z,8.80
2023-04-29T21:44:07.653Z,8.80
2023-04-29T21:46:35.970Z,8.80
2023-04-29T21:49:04.400Z,8.80
2023-04-29T21:51:32.801Z,8.80
2023-04-29T21:54:01.144Z,8.60
2023-04-29T21:56:29.182Z,8.60
2023-04-29T21:58:58.634Z,8.50
2023-04-29T22:01:40.557Z,8.50
2023-04-29T22:04:08.672Z,8.50
2023-04-29T22:06:37.001Z,8.50
2023-04-29T22:09:05.326Z,8.40
2023-04-29T22:11:33.369Z,8.40
2023-04-29T22:14:02.776Z,8.30
2023-04-29T22:16:30.853Z,8.30
2023-04-29T22:18:59.123Z,8.30
2023-04-29T22:21:27.954Z,8.20
2023-04-29T22:23:56.077Z,8.20
2023-04-29T22:26:25.591Z,8.20
2023-04-29T22:28:53.673Z,8.20
2023-04-29T22:31:23.099Z,8.10
2023-04-29T22:33:51.218Z,8.10
2023-04-29T22:36:19.550Z,8.10
2023-04-29T22:38:47.598Z,8.10
2023-04-29T22:41:16.530Z,8.00
2023-04-29T22:43:44.613Z,8.10
2023-04-29T22:46:12.687Z,8.00
2023-04-29T22:48:42.101Z,8.00
2023-04-29T22:51:10.127Z,7.90
2023-04-29T22:53:38.190Z,7.90
2023-04-29T22:56:06.789Z,7.90
2023-04-29T22:58:34.862Z,7.80
2023-04-29T23:01:03.211Z,7.80
2023-04-29T23:03:31.315Z,7.70
2023-04-29T23:06:00.954Z,7.70
2023-04-29T23:08:29.084Z,7.70
2023-04-29T23:10:57.120Z,7.60
2023-04-29T23:13:25.193Z,7.60
2023-04-29T23:15:56.037Z,7.50
2023-04-29T23:18:24.160Z,7.50
2023-04-29T23:20:53.034Z,7.50
2023-04-29T23:23:22.454Z,7.40
2023-04-29T23:25:50.682Z,7.40
2023-04-29T23:28:18.743Z,7.40
2023-04-29T23:30:47.809Z,7.40
2023-04-29T23:33:15.872Z,7.30
2023-04-29T23:35:49.584Z,7.20
2023-04-29T23:38:17.780Z,7.20
2023-04-29T23:40:47.431Z,7.20
2023-04-29T23:43:15.950Z,7.20
2023-04-29T23:45:45.297Z,7.20
2023-04-29T23:48:13.451Z,7.20
2023-04-29T23:50:41.480Z,7.10
2023-04-29T23:53:09.526Z,7.10
2023-04-29T23:55:37.556Z,7.00
2023-04-29T23:58:07.684Z,7.00
